sensor_id;sensor_type;location;lat;lon;timestamp;pressure;altitude;pressure_sealevel;temperature;humidity
10064;BME280;5071;52.360;13.134;2023-08-06T00:03:40;100297.00;;;16.37;100.00
10064;BME280;5071;52.360;13.134;2023-08-06T00:08:43;100301.81;;;16.28;100.00
10064;BME280;5071;52.360;13.134;2023-08-06T00:13:46;100291.81;;;16.11;100.00
10064;BME280;5071;52.360;13.134;2023-08-06T00:18:48;100282.38;;;16.03;100.00
10064;BME280;5071;52.360;13.134;2023-08-06T00:23:51;100278.91;;;16.21;100.00
10064;BME280;5071;52.360;13.134;2023-08-06T00:28:53;100277.38;;;16.16;100.00
10064;BME280;5071;52.360;13.134;2023-08-06T00:33:55;100283.25;;;16.03;100.00
10064;BME280;5071;52.360;13.134;2023-08-06T00:38:59;100272.94;;;15.94;100.00
10064;BME280;5071;52.360;13.134;2023-08-06T00:44:01;100270.00;;;16.00;100.00
10064;BME280;5071;52.360;13.134;2023-08-06T00:49:04;100275.81;;;16.10;100.00
10064;BME280;5071;52.360;13.134;2023-08-06T00:54:08;100256.16;;;16.11;100.00
10064;BME280;5071;52.360;13.134;2023-08-06T00:59:11;100254.16;;;16.16;100.00
10064;BME280;5071;52.360;13.134;2023-08-06T01:04:14;100257.38;;;16.24;100.00
10064;BME280;5071;52.360;13.134;2023-08-06T01:09:30;100253.59;;;16.28;100.00
10064;BME280;5071;52.360;13.134;2023-08-06T01:14:37;100255.38;;;16.29;100.00
10064;BME280;5071;52.360;13.134;2023-08-06T01:19:43;100238.16;;;16.15;100.00
10064;BME280;5071;52.360;13.134;2023-08-06T01:24:49;100238.28;;;16.11;100.00
10064;BME280;5071;52.360;13.134;2023-08-06T01:29:57;100236.72;;;16.06;100.00
10064;BME280;5071;52.360;13.134;2023-08-06T01:35:03;100229.22;;;16.14;100.00
10064;BME280;5071;52.360;13.134;2023-08-06T01:40:09;100220.69;;;16.06;100.00
10064;BME280;5071;52.360;13.134;2023-08-06T01:45:11;100222.69;;;16.21;100.00
10064;BME280;5071;52.360;13.134;2023-08-06T01:50:14;100219.88;;;16.24;100.00
10064;BME280;5071;52.360;13.134;2023-08-06T01:55:17;100216.69;;;16.16;100.00
10064;BME280;5071;52.360;13.134;2023-08-06T02:00:20;100213.25;;;16.12;100.00
10064;BME280;5071;52.360;13.134;2023-08-06T02:05:22;100217.31;;;16.21;100.00
10064;BME280;5071;52.360;13.134;2023-08-06T02:10:25;100214.78;;;16.39;100.00
10064;BME280;5071;52.360;13.134;2023-08-06T02:15:27;100203.41;;;16.33;100.00
10064;BME280;5071;52.360;13.134;2023-08-06T02:20:30;100201.38;;;16.39;100.00
10064;BME280;5071;52.360;13.134;2023-08-06T02:25:33;100187.44;;;16.30;100.00
10064;BME280;5071;52.360;13.134;2023-08-06T02:30:35;100188.19;;;16.34;100.00
10064;BME280;5071;52.360;13.134;2023-08-06T02:35:37;100181.41;;;16.25;100.00
10064;BME280;5071;52.360;13.134;2023-08-06T02:40:44;100176.50;;;16.16;100.00
10064;BME280;5071;52.360;13.134;2023-08-06T02:45:46;100165.53;;;16.02;100.00
10064;BME280;5071;52.360;13.134;2023-08-06T02:50:49;100153.47;;;16.12;100.00
10064;BME280;5071;52.360;13.134;2023-08-06T02:55:52;100154.75;;;16.03;100.00
10064;BME280;5071;52.360;13.134;2023-08-06T03:01:02;100156.09;;;15.93;100.00
10064;BME280;5071;52.360;13.134;2023-08-06T03:06:05;100152.81;;;16.07;100.00
10064;BME280;5071;52.360;13.134;2023-08-06T03:11:09;100157.69;;;15.97;100.00
10064;BME280;5071;52.360;13.134;2023-08-06T03:16:11;100146.53;;;15.87;100.00
10064;BME280;5071;52.360;13.134;2023-08-06T03:21:13;100145.38;;;15.93;100.00
10064;BME280;5071;52.360;13.134;2023-08-06T03:26:16;100138.44;;;15.89;100.00
10064;BME280;5071;52.360;13.134;2023-08-06T03:31:19;100140.53;;;15.82;100.00
10064;BME280;5071;52.360;13.134;2023-08-06T03:36:21;100131.22;;;15.69;100.00
10064;BME280;5071;52.360;13.134;2023-08-06T03:41:24;100128.06;;;15.81;100.00
10064;BME280;5071;52.360;13.134;2023-08-06T03:46:26;100130.88;;;15.78;100.00
10064;BME280;5071;52.360;13.134;2023-08-06T03:51:29;100124.19;;;15.88;100.00
10064;BME280;5071;52.360;13.134;2023-08-06T03:56:32;100118.56;;;15.74;100.00
10064;BME280;5071;52.360;13.134;2023-08-06T04:01:34;100100.56;;;15.78;100.00
10064;BME280;5071;52.360;13.134;2023-08-06T04:06:36;100104.09;;;15.78;100.00
10064;BME280;5071;52.360;13.134;2023-08-06T04:11:40;100095.03;;;15.82;100.00
10064;BME280;5071;52.360;13.134;2023-08-06T04:16:42;100090.31;;;15.87;100.00
10064;BME280;5071;52.360;13.134;2023-08-06T04:21:44;100089.53;;;15.85;100.00
10064;BME280;5071;52.360;13.134;2023-08-06T04:26:47;100073.34;;;15.88;100.00
10064;BME280;5071;52.360;13.134;2023-08-06T04:31:50;100073.03;;;15.94;100.00
10064;BME280;5071;52.360;13.134;2023-08-06T04:36:52;100057.13;;;15.91;100.00
10064;BME280;5071;52.360;13.134;2023-08-06T04:41:56;100062.69;;;15.87;100.00
10064;BME280;5071;52.360;13.134;2023-08-06T04:46:58;100054.06;;;15.80;100.00
10064;BME280;5071;52.360;13.134;2023-08-06T04:52:00;100048.88;;;15.77;100.00
10064;BME280;5071;52.360;13.134;2023-08-06T04:57:04;100051.97;;;15.66;100.00
10064;BME280;5071;52.360;13.134;2023-08-06T05:02:07;100037.75;;;15.86;100.00
10064;BME280;5071;52.360;13.134;2023-08-06T05:07:10;100035.69;;;15.91;100.00
10064;BME280;5071;52.360;13.134;2023-08-06T05:12:13;100032.22;;;15.89;100.00
10064;BME280;5071;52.360;13.134;2023-08-06T05:17:16;100024.94;;;15.93;100.00
10064;BME280;5071;52.360;13.134;2023-08-06T05:22:18;100008.38;;;16.04;100.00
10064;BME280;5071;52.360;13.134;2023-08-06T05:27:21;100002.16;;;16.03;100.00
10064;BME280;5071;52.360;13.134;2023-08-06T05:32:23;99988.53;;;16.27;100.00
10064;BME280;5071;52.360;13.134;2023-08-06T05:37:25;99999.41;;;16.43;100.00
10064;BME280;5071;52.360;13.134;2023-08-06T05:42:29;100000.69;;;16.34;100.00
10064;BME280;5071;52.360;13.134;2023-08-06T05:47:31;99997.84;;;16.56;100.00
10064;BME280;5071;52.360;13.134;2023-08-06T05:52:33;100005.91;;;16.74;100.00
10064;BME280;5071;52.360;13.134;2023-08-06T05:57:36;100007.13;;;16.85;100.00
10064;BME280;5071;52.360;13.134;2023-08-06T06:02:39;100011.06;;;16.78;100.00
10064;BME280;5071;52.360;13.134;2023-08-06T06:07:41;100005.50;;;17.00;100.00
10064;BME280;5071;52.360;13.134;2023-08-06T06:12:45;100010.56;;;17.24;100.00
10064;BME280;5071;52.360;13.134;2023-08-06T06:17:47;100005.94;;;17.43;100.00
10064;BME280;5071;52.360;13.134;2023-08-06T06:22:49;99996.03;;;17.28;100.00
10064;BME280;5071;52.360;13.134;2023-08-06T06:27:52;99988.06;;;17.26;100.00
10064;BME280;5071;52.360;13.134;2023-08-06T06:32:54;99982.81;;;17.25;100.00
10064;BME280;5071;52.360;13.134;2023-08-06T06:37:56;99981.69;;;16.94;100.00
10064;BME280;5071;52.360;13.134;2023-08-06T06:42:59;99978.53;;;17.03;100.00
10064;BME280;5071;52.360;13.134;2023-08-06T06:48:01;99987.13;;;17.27;100.00
10064;BME280;5071;52.360;13.134;2023-08-06T06:53:03;99989.13;;;17.57;100.00
10064;BME280;5071;52.360;13.134;2023-08-06T06:58:06;99984.16;;;17.67;100.00
10064;BME280;5071;52.360;13.134;2023-08-06T07:03:08;99991.66;;;17.94;100.00
10064;BME280;5071;52.360;13.134;2023-08-06T07:08:11;100000.69;;;17.93;99.23
10064;BME280;5071;52.360;13.134;2023-08-06T07:13:14;99997.91;;;17.94;100.00
10064;BME280;5071;52.360;13.134;2023-08-06T07:18:16;99989.09;;;18.08;97.71
10064;BME280;5071;52.360;13.134;2023-08-06T07:23:18;99999.28;;;17.85;98.09
10064;BME280;5071;52.360;13.134;2023-08-06T07:28:22;99990.84;;;18.25;97.99
10064;BME280;5071;52.360;13.134;2023-08-06T07:33:24;99995.38;;;18.71;93.94
10064;BME280;5071;52.360;13.134;2023-08-06T07:38:25;99990.66;;;18.44;95.71
10064;BME280;5071;52.360;13.134;2023-08-06T07:43:28;99989.63;;;18.31;96.68
10064;BME280;5071;52.360;13.134;2023-08-06T07:48:30;99994.28;;;18.43;95.01
10064;BME280;5071;52.360;13.134;2023-08-06T07:53:32;99989.06;;;18.72;94.20
10064;BME280;5071;52.360;13.134;2023-08-06T07:58:35;99989.19;;;18.38;94.08
10064;BME280;5071;52.360;13.134;2023-08-06T08:03:37;99986.13;;;18.44;98.14
10064;BME280;5071;52.360;13.134;2023-08-06T08:08:39;99988.28;;;18.70;92.90
10064;BME280;5071;52.360;13.134;2023-08-06T08:13:42;99987.44;;;18.99;92.27
10064;BME280;5071;52.360;13.134;2023-08-06T08:18:44;99985.25;;;19.36;91.22
10064;BME280;5071;52.360;13.134;2023-08-06T08:23:46;99992.38;;;19.66;89.75
10064;BME280;5071;52.360;13.134;2023-08-06T08:28:49;99972.41;;;19.85;89.21
10064;BME280;5071;52.360;13.134;2023-08-06T08:33:52;99969.16;;;19.79;87.88
10064;BME280;5071;52.360;13.134;2023-08-06T08:38:56;99974.72;;;19.91;85.79
10064;BME280;5071;52.360;13.134;2023-08-06T08:43:59;99956.97;;;20.15;84.39
10064;BME280;5071;52.360;13.134;2023-08-06T08:49:02;99953.28;;;20.72;82.35
10064;BME280;5071;52.360;13.134;2023-08-06T08:54:04;99944.69;;;20.93;82.15
10064;BME280;5071;52.360;13.134;2023-08-06T08:59:10;99938.91;;;21.12;78.83
10064;BME280;5071;52.360;13.134;2023-08-06T09:04:12;99940.09;;;21.08;80.98
10064;BME280;5071;52.360;13.134;2023-08-06T09:09:17;99927.97;;;21.26;79.81
10064;BME280;5071;52.360;13.134;2023-08-06T09:14:26;99926.34;;;21.11;80.81
10064;BME280;5071;52.360;13.134;2023-08-06T09:19:28;99921.72;;;20.60;82.98
10064;BME280;5071;52.360;13.134;2023-08-06T09:24:30;99917.00;;;20.64;84.07
10064;BME280;5071;52.360;13.134;2023-08-06T09:29:33;99912.28;;;20.53;85.63
10064;BME280;5071;52.360;13.134;2023-08-06T09:34:35;99906.47;;;20.86;82.77
10064;BME280;5071;52.360;13.134;2023-08-06T09:39:40;99908.34;;;20.99;81.55
10064;BME280;5071;52.360;13.134;2023-08-06T09:44:43;99896.47;;;21.14;81.93
10064;BME280;5071;52.360;13.134;2023-08-06T09:49:45;99888.81;;;21.08;81.00
10064;BME280;5071;52.360;13.134;2023-08-06T09:54:47;99877.03;;;21.22;81.20
10064;BME280;5071;52.360;13.134;2023-08-06T09:59:52;99881.78;;;21.18;80.52
10064;BME280;5071;52.360;13.134;2023-08-06T10:04:55;99884.91;;;21.12;81.97
10064;BME280;5071;52.360;13.134;2023-08-06T10:09:59;99874.97;;;21.00;80.55
10064;BME280;5071;52.360;13.134;2023-08-06T10:15:06;99869.13;;;21.31;80.82
10064;BME280;5071;52.360;13.134;2023-08-06T10:20:10;99872.88;;;20.77;80.42
10064;BME280;5071;52.360;13.134;2023-08-06T10:25:16;99871.06;;;20.78;81.08
10064;BME280;5071;52.360;13.134;2023-08-06T10:30:24;99868.06;;;20.95;82.92
10064;BME280;5071;52.360;13.134;2023-08-06T10:35:29;99855.00;;;21.28;77.84
10064;BME280;5071;52.360;13.134;2023-08-06T10:40:31;99858.16;;;21.84;76.56
10064;BME280;5071;52.360;13.134;2023-08-06T10:45:36;99851.56;;;20.87;77.41
10064;BME280;5071;52.360;13.134;2023-08-06T10:50:38;99846.50;;;21.21;79.35
10064;BME280;5071;52.360;13.134;2023-08-06T10:55:40;99842.81;;;21.48;81.43
10064;BME280;5071;52.360;13.134;2023-08-06T11:00:44;99838.78;;;21.41;76.18
10064;BME280;5071;52.360;13.134;2023-08-06T11:05:48;99840.53;;;21.42;78.79
10064;BME280;5071;52.360;13.134;2023-08-06T11:10:51;99831.25;;;21.20;80.07
10064;BME280;5071;52.360;13.134;2023-08-06T11:16:06;99819.53;;;21.58;77.55
10064;BME280;5071;52.360;13.134;2023-08-06T11:21:08;99816.34;;;21.53;77.13
10064;BME280;5071;52.360;13.134;2023-08-06T11:26:11;99816.06;;;21.06;79.26
10064;BME280;5071;52.360;13.134;2023-08-06T11:31:23;99799.69;;;21.33;78.18
10064;BME280;5071;52.360;13.134;2023-08-06T11:36:31;99797.56;;;21.13;75.94
10064;BME280;5071;52.360;13.134;2023-08-06T11:41:34;99787.78;;;21.12;77.57
10064;BME280;5071;52.360;13.134;2023-08-06T11:46:51;99786.03;;;20.98;77.37
10064;BME280;5071;52.360;13.134;2023-08-06T11:51:53;99776.97;;;21.12;79.61
10064;BME280;5071;52.360;13.134;2023-08-06T11:56:55;99774.88;;;21.28;77.62
10064;BME280;5071;52.360;13.134;2023-08-06T12:02:00;99771.47;;;21.01;77.58
10064;BME280;5071;52.360;13.134;2023-08-06T12:07:05;99769.44;;;21.41;78.44
10064;BME280;5071;52.360;13.134;2023-08-06T12:12:08;99766.28;;;21.60;76.52
10064;BME280;5071;52.360;13.134;2023-08-06T12:17:11;99756.50;;;21.33;77.26
10064;BME280;5071;52.360;13.134;2023-08-06T12:22:13;99758.00;;;21.38;77.71
10064;BME280;5071;52.360;13.134;2023-08-06T12:27:16;99749.31;;;21.58;77.58
10064;BME280;5071;52.360;13.134;2023-08-06T12:32:19;99758.38;;;21.70;77.54
10064;BME280;5071;52.360;13.134;2023-08-06T12:37:21;99770.84;;;22.08;77.63
10064;BME280;5071;52.360;13.134;2023-08-06T12:42:23;99763.84;;;22.17;72.68
10064;BME280;5071;52.360;13.134;2023-08-06T12:47:27;99768.31;;;21.69;73.79
10064;BME280;5071;52.360;13.134;2023-08-06T12:52:29;99772.38;;;21.99;72.56
10064;BME280;5071;52.360;13.134;2023-08-06T12:57:31;99771.69;;;21.84;74.42
10064;BME280;5071;52.360;13.134;2023-08-06T13:02:53;99773.34;;;21.50;74.87
10064;BME280;5071;52.360;13.134;2023-08-06T13:07:57;99761.25;;;21.30;76.18
10064;BME280;5071;52.360;13.134;2023-08-06T13:12:58;99762.16;;;21.30;77.38
10064;BME280;5071;52.360;13.134;2023-08-06T13:18:02;99760.69;;;20.88;80.71
10064;BME280;5071;52.360;13.134;2023-08-06T13:23:04;99761.09;;;20.43;82.30
10064;BME280;5071;52.360;13.134;2023-08-06T13:28:06;99759.09;;;20.07;87.43
10064;BME280;5071;52.360;13.134;2023-08-06T13:33:09;99756.38;;;20.85;84.78
10064;BME280;5071;52.360;13.134;2023-08-06T13:38:11;99752.97;;;21.20;83.12
10064;BME280;5071;52.360;13.134;2023-08-06T13:43:13;99743.06;;;21.58;79.76
10064;BME280;5071;52.360;13.134;2023-08-06T13:48:16;99753.91;;;20.82;82.28
10064;BME280;5071;52.360;13.134;2023-08-06T13:53:18;99751.47;;;19.86;75.77
10064;BME280;5071;52.360;13.134;2023-08-06T13:58:20;99752.41;;;19.16;79.25
10064;BME280;5071;52.360;13.134;2023-08-06T14:03:24;99759.84;;;18.09;85.35
10064;BME280;5071;52.360;13.134;2023-08-06T14:08:26;99738.44;;;17.61;90.99
10064;BME280;5071;52.360;13.134;2023-08-06T14:13:27;99737.41;;;17.32;93.23
10064;BME280;5071;52.360;13.134;2023-08-06T14:18:31;99729.94;;;17.69;92.54
10064;BME280;5071;52.360;13.134;2023-08-06T14:23:33;99735.34;;;17.99;92.79
10064;BME280;5071;52.360;13.134;2023-08-06T14:28:35;99736.84;;;17.73;91.82
10064;BME280;5071;52.360;13.134;2023-08-06T14:33:38;99734.75;;;17.48;95.52
10064;BME280;5071;52.360;13.134;2023-08-06T14:38:40;99739.94;;;17.35;97.82
10064;BME280;5071;52.360;13.134;2023-08-06T14:43:59;99736.03;;;17.09;100.00
10064;BME280;5071;52.360;13.134;2023-08-06T14:49:02;99742.00;;;16.81;100.00
10064;BME280;5071;52.360;13.134;2023-08-06T14:54:04;99739.47;;;16.95;100.00
10064;BME280;5071;52.360;13.134;2023-08-06T14:59:06;99750.63;;;17.03;100.00
10064;BME280;5071;52.360;13.134;2023-08-06T15:04:09;99748.56;;;17.24;100.00
10064;BME280;5071;52.360;13.134;2023-08-06T15:09:11;99750.38;;;17.40;100.00
10064;BME280;5071;52.360;13.134;2023-08-06T15:14:13;99766.41;;;17.41;100.00
10064;BME280;5071;52.360;13.134;2023-08-06T15:19:17;99762.69;;;17.28;100.00
10064;BME280;5071;52.360;13.134;2023-08-06T15:24:20;99755.16;;;17.19;100.00
10064;BME280;5071;52.360;13.134;2023-08-06T15:29:23;99766.50;;;17.24;100.00
10064;BME280;5071;52.360;13.134;2023-08-06T15:34:26;99771.50;;;17.30;100.00
10064;BME280;5071;52.360;13.134;2023-08-06T15:39:28;99770.38;;;17.18;100.00
10064;BME280;5071;52.360;13.134;2023-08-06T15:44:30;99774.88;;;17.18;100.00
10064;BME280;5071;52.360;13.134;2023-08-06T15:49:34;99769.16;;;16.75;100.00
10064;BME280;5071;52.360;13.134;2023-08-06T15:54:36;99765.84;;;16.69;100.00
10064;BME280;5071;52.360;13.134;2023-08-06T15:59:38;99767.06;;;16.80;100.00
10064;BME280;5071;52.360;13.134;2023-08-06T16:04:41;99766.53;;;16.90;100.00
10064;BME280;5071;52.360;13.134;2023-08-06T16:09:44;99771.75;;;16.76;100.00
10064;BME280;5071;52.360;13.134;2023-08-06T16:14:46;99768.19;;;16.76;100.00
10064;BME280;5071;52.360;13.134;2023-08-06T16:19:50;99766.00;;;16.66;100.00
10064;BME280;5071;52.360;13.134;2023-08-06T16:24:52;99766.00;;;16.66;100.00
10064;BME280;5071;52.360;13.134;2023-08-06T16:29:54;99768.69;;;16.84;100.00
10064;BME280;5071;52.360;13.134;2023-08-06T16:34:58;99778.38;;;16.86;100.00
10064;BME280;5071;52.360;13.134;2023-08-06T16:40:00;99777.97;;;16.77;100.00
10064;BME280;5071;52.360;13.134;2023-08-06T16:45:02;99778.03;;;16.75;100.00
10064;BME280;5071;52.360;13.134;2023-08-06T16:50:06;99775.16;;;16.62;100.00
10064;BME280;5071;52.360;13.134;2023-08-06T16:55:12;99769.06;;;16.59;100.00
10064;BME280;5071;52.360;13.134;2023-08-06T17:00:14;99760.88;;;16.62;100.00
10064;BME280;5071;52.360;13.134;2023-08-06T17:05:17;99758.06;;;16.65;100.00
10064;BME280;5071;52.360;13.134;2023-08-06T17:10:19;99754.25;;;16.69;100.00
10064;BME280;5071;52.360;13.134;2023-08-06T17:15:22;99748.81;;;16.88;100.00
10064;BME280;5071;52.360;13.134;2023-08-06T17:20:25;99739.81;;;16.71;100.00
10064;BME280;5071;52.360;13.134;2023-08-06T17:25:27;99744.22;;;16.90;100.00
10064;BME280;5071;52.360;13.134;2023-08-06T17:30:31;99735.31;;;16.72;100.00
10064;BME280;5071;52.360;13.134;2023-08-06T17:35:35;99743.06;;;16.27;100.00
10064;BME280;5071;52.360;13.134;2023-08-06T17:40:36;99742.56;;;16.37;100.00
10064;BME280;5071;52.360;13.134;2023-08-06T17:45:39;99743.97;;;16.44;100.00
10064;BME280;5071;52.360;13.134;2023-08-06T17:50:44;99743.34;;;16.56;100.00
10064;BME280;5071;52.360;13.134;2023-08-06T17:55:46;99740.72;;;16.55;100.00
10064;BME280;5071;52.360;13.134;2023-08-06T18:00:48;99743.81;;;16.47;100.00
10064;BME280;5071;52.360;13.134;2023-08-06T18:05:56;99738.94;;;16.38;100.00
10064;BME280;5071;52.360;13.134;2023-08-06T18:10:58;99745.09;;;16.22;100.00
10064;BME280;5071;52.360;13.134;2023-08-06T18:16:00;99736.28;;;16.20;100.00
10064;BME280;5071;52.360;13.134;2023-08-06T18:21:03;99742.44;;;16.05;100.00
10064;BME280;5071;52.360;13.134;2023-08-06T18:26:05;99744.78;;;15.93;100.00
10064;BME280;5071;52.360;13.134;2023-08-06T18:31:07;99750.88;;;15.78;100.00
10064;BME280;5071;52.360;13.134;2023-08-06T18:36:10;99751.31;;;15.69;100.00
10064;BME280;5071;52.360;13.134;2023-08-06T18:41:12;99754.31;;;15.63;100.00
10064;BME280;5071;52.360;13.134;2023-08-06T18:46:14;99759.09;;;15.75;100.00
10064;BME280;5071;52.360;13.134;2023-08-06T18:51:18;99759.19;;;15.72;100.00
10064;BME280;5071;52.360;13.134;2023-08-06T18:56:20;99751.63;;;15.63;100.00
10064;BME280;5071;52.360;13.134;2023-08-06T19:01:22;99763.72;;;15.52;100.00
10064;BME280;5071;52.360;13.134;2023-08-06T19:06:25;99769.63;;;15.59;100.00
10064;BME280;5071;52.360;13.134;2023-08-06T19:11:28;99770.28;;;15.64;100.00
10064;BME280;5071;52.360;13.134;2023-08-06T19:16:29;99763.28;;;15.62;100.00
10064;BME280;5071;52.360;13.134;2023-08-06T19:21:33;99761.69;;;15.58;100.00
10064;BME280;5071;52.360;13.134;2023-08-06T19:26:34;99771.31;;;15.62;100.00
10064;BME280;5071;52.360;13.134;2023-08-06T19:31:36;99767.63;;;15.45;100.00
10064;BME280;5071;52.360;13.134;2023-08-06T19:36:42;99772.81;;;15.48;100.00
10064;BME280;5071;52.360;13.134;2023-08-06T19:41:45;99761.31;;;15.46;100.00
10064;BME280;5071;52.360;13.134;2023-08-06T19:46:47;99771.88;;;15.49;100.00
10064;BME280;5071;52.360;13.134;2023-08-06T19:51:51;99764.66;;;15.51;100.00
10064;BME280;5071;52.360;13.134;2023-08-06T19:56:53;99764.34;;;15.58;100.00
10064;BME280;5071;52.360;13.134;2023-08-06T20:01:55;99772.09;;;15.64;100.00
10064;BME280;5071;52.360;13.134;2023-08-06T20:06:59;99765.00;;;15.63;100.00
10064;BME280;5071;52.360;13.134;2023-08-06T20:12:01;99766.88;;;15.61;100.00
10064;BME280;5071;52.360;13.134;2023-08-06T20:17:04;99768.03;;;15.74;100.00
10064;BME280;5071;52.360;13.134;2023-08-06T20:22:07;99760.53;;;15.82;100.00
10064;BME280;5071;52.360;13.134;2023-08-06T20:27:09;99765.56;;;15.88;100.00
10064;BME280;5071;52.360;13.134;2023-08-06T20:32:11;99754.94;;;15.68;100.00
10064;BME280;5071;52.360;13.134;2023-08-06T20:37:14;99753.50;;;15.61;100.00
10064;BME280;5071;52.360;13.134;2023-08-06T20:42:17;99753.38;;;15.64;100.00
10064;BME280;5071;52.360;13.134;2023-08-06T20:47:19;99769.16;;;15.87;100.00
10064;BME280;5071;52.360;13.134;2023-08-06T20:52:22;99767.47;;;15.67;100.00
10064;BME280;5071;52.360;13.134;2023-08-06T20:57:24;99772.81;;;15.67;100.00
10064;BME280;5071;52.360;13.134;2023-08-06T21:02:27;99774.06;;;15.60;100.00
10064;BME280;5071;52.360;13.134;2023-08-06T21:07:30;99773.47;;;15.53;100.00
10064;BME280;5071;52.360;13.134;2023-08-06T21:12:33;99765.78;;;15.65;100.00
10064;BME280;5071;52.360;13.134;2023-08-06T21:17:35;99767.66;;;15.63;100.00
10064;BME280;5071;52.360;13.134;2023-08-06T21:22:38;99762.28;;;15.45;100.00
10064;BME280;5071;52.360;13.134;2023-08-06T21:27:40;99772.31;;;15.40;100.00
10064;BME280;5071;52.360;13.134;2023-08-06T21:32:42;99770.63;;;15.39;100.00
10064;BME280;5071;52.360;13.134;2023-08-06T21:37:45;99770.34;;;15.63;100.00
10064;BME280;5071;52.360;13.134;2023-08-06T21:42:48;99778.97;;;15.69;100.00
10064;BME280;5071;52.360;13.134;2023-08-06T21:47:50;99769.28;;;15.48;100.00
10064;BME280;5071;52.360;13.134;2023-08-06T21:52:53;99782.66;;;15.29;100.00
10064;BME280;5071;52.360;13.134;2023-08-06T21:57:55;99777.47;;;15.26;100.00
10064;BME280;5071;52.360;13.134;2023-08-06T22:02:57;99779.09;;;15.66;100.00
10064;BME280;5071;52.360;13.134;2023-08-06T22:08:01;99777.75;;;15.20;100.00
10064;BME280;5071;52.360;13.134;2023-08-06T22:13:03;99770.31;;;15.26;100.00
10064;BME280;5071;52.360;13.134;2023-08-06T22:18:05;99780.66;;;14.96;100.00
10064;BME280;5071;52.360;13.134;2023-08-06T22:23:09;99785.16;;;14.94;100.00
10064;BME280;5071;52.360;13.134;2023-08-06T22:28:11;99787.34;;;14.65;100.00
10064;BME280;5071;52.360;13.134;2023-08-06T22:33:13;99788.16;;;14.67;100.00
10064;BME280;5071;52.360;13.134;2023-08-06T22:38:17;99788.00;;;14.50;100.00
10064;BME280;5071;52.360;13.134;2023-08-06T22:43:19;99791.81;;;14.44;100.00
10064;BME280;5071;52.360;13.134;2023-08-06T22:48:21;99790.00;;;14.24;100.00
10064;BME280;5071;52.360;13.134;2023-08-06T22:53:24;99797.47;;;14.16;100.00
10064;BME280;5071;52.360;13.134;2023-08-06T22:58:26;99806.72;;;14.07;100.00
10064;BME280;5071;52.360;13.134;2023-08-06T23:03:29;99808.81;;;14.00;100.00
10064;BME280;5071;52.360;13.134;2023-08-06T23:08:32;99814.25;;;13.97;100.00
10064;BME280;5071;52.360;13.134;2023-08-06T23:13:35;99808.22;;;13.92;100.00
10064;BME280;5071;52.360;13.134;2023-08-06T23:18:37;99810.91;;;13.92;100.00
10064;BME280;5071;52.360;13.134;2023-08-06T23:23:41;99809.19;;;13.91;100.00
10064;BME280;5071;52.360;13.134;2023-08-06T23:28:43;99814.09;;;13.80;100.00
10064;BME280;5071;52.360;13.134;2023-08-06T23:33:45;99811.66;;;13.74;100.00
10064;BME280;5071;52.360;13.134;2023-08-06T23:38:48;99806.56;;;13.68;100.00
10064;BME280;5071;52.360;13.134;2023-08-06T23:43:51;99801.97;;;13.71;100.00
10064;BME280;5071;52.360;13.134;2023-08-06T23:48:53;99808.22;;;13.92;100.00
10064;BME280;5071;52.360;13.134;2023-08-06T23:53:56;99793.56;;;13.82;100.00
10064;BME280;5071;52.360;13.134;2023-08-06T23:58:59;99793.28;;;13.66;100.00
